New Street, Pennsylvania
Current Conditions -  °F | °C
As of 1:58 AM on Saturday 25 Oct 2014 (Local Time) from KMUI Reporting Station
Clear Clear  
Wind Chill: 55°   Ceiling: Unl
Heat Index: 55°   Visibility: 10mi
Dew Point: 39°   Wind: 7mph
Humidity: 56%   Direction: 260°W
Pressure: 29.93"   Gusts: NA
Location:  40.6882°N, 76.264°W
Report Text: KMUI 250558Z AUTO 26006KT 10SM CLR 13/04 A2993 RMK AO2 SLP137 T01270040 10161 20127 50001 $
Loading
Personal Weather Stations






























Interactive Weather Map
Tropical Storm Tracking
New forecast layout! Learn more

10-Day Weather Forecast

Advertisements
Track Severe Weather on mobile